sensor_id;sensor_type;location;lat;lon;timestamp;P1;durP1;ratioP1;P2;durP2;ratioP2
4959;SDS011;2495;48.200;11.532;2023-02-04T00:02:29;1.40;;;1.30;;
4959;SDS011;2495;48.200;11.532;2023-02-04T00:07:31;1.63;;;1.53;;
4959;SDS011;2495;48.200;11.532;2023-02-04T00:12:33;2.00;;;1.90;;
4959;SDS011;2495;48.200;11.532;2023-02-04T00:17:34;1.10;;;0.90;;
4959;SDS011;2495;48.200;11.532;2023-02-04T00:22:35;2.07;;;1.97;;
4959;SDS011;2495;48.200;11.532;2023-02-04T00:27:37;1.10;;;0.90;;
4959;SDS011;2495;48.200;11.532;2023-02-04T00:32:38;2.10;;;2.00;;
4959;SDS011;2495;48.200;11.532;2023-02-04T00:37:39;2.10;;;2.00;;
4959;SDS011;2495;48.200;11.532;2023-02-04T00:42:41;2.40;;;2.30;;
4959;SDS011;2495;48.200;11.532;2023-02-04T00:47:42;2.50;;;2.40;;
4959;SDS011;2495;48.200;11.532;2023-02-04T00:52:43;2.67;;;2.57;;
4959;SDS011;2495;48.200;11.532;2023-02-04T00:57:45;3.00;;;2.80;;
4959;SDS011;2495;48.200;11.532;2023-02-04T01:02:52;3.10;;;2.90;;
4959;SDS011;2495;48.200;11.532;2023-02-04T01:07:53;3.00;;;2.80;;
4959;SDS011;2495;48.200;11.532;2023-02-04T01:12:58;3.10;;;2.90;;
4959;SDS011;2495;48.200;11.532;2023-02-04T01:18:08;3.10;;;2.90;;
4959;SDS011;2495;48.200;11.532;2023-02-04T01:23:01;3.10;;;2.90;;
4959;SDS011;2495;48.200;11.532;2023-02-04T01:28:02;1.60;;;1.50;;
4959;SDS011;2495;48.200;11.532;2023-02-04T01:33:03;3.80;;;3.60;;
4959;SDS011;2495;48.200;11.532;2023-02-04T01:38:11;4.10;;;3.90;;
4959;SDS011;2495;48.200;11.532;2023-02-04T01:48:24;3.83;;;3.63;;
4959;SDS011;2495;48.200;11.532;2023-02-04T01:53:26;3.90;;;3.70;;
4959;SDS011;2495;48.200;11.532;2023-02-04T01:58:30;3.70;;;3.50;;
4959;SDS011;2495;48.200;11.532;2023-02-04T02:34:11;3.83;;;3.63;;
4959;SDS011;2495;48.200;11.532;2023-02-04T02:41:31;3.80;;;3.60;;
4959;SDS011;2495;48.200;11.532;2023-02-04T02:53:52;3.40;;;3.20;;
4959;SDS011;2495;48.200;11.532;2023-02-04T04:00:37;1.10;;;0.80;;
4959;SDS011;2495;48.200;11.532;2023-02-04T04:05:45;2.40;;;2.23;;
4959;SDS011;2495;48.200;11.532;2023-02-04T04:59:54;1.40;;;1.30;;
4959;SDS011;2495;48.200;11.532;2023-02-04T05:04:55;1.50;;;1.40;;
4959;SDS011;2495;48.200;11.532;2023-02-04T05:09:56;1.30;;;1.20;;
4959;SDS011;2495;48.200;11.532;2023-02-04T05:14:57;1.30;;;1.20;;
4959;SDS011;2495;48.200;11.532;2023-02-04T05:19:59;1.30;;;1.20;;
4959;SDS011;2495;48.200;11.532;2023-02-04T05:25:00;2.07;;;1.90;;
4959;SDS011;2495;48.200;11.532;2023-02-04T05:30:01;1.40;;;1.30;;
4959;SDS011;2495;48.200;11.532;2023-02-04T05:35:03;1.30;;;1.20;;
4959;SDS011;2495;48.200;11.532;2023-02-04T05:40:05;1.30;;;1.20;;
4959;SDS011;2495;48.200;11.532;2023-02-04T05:45:08;1.23;;;1.13;;
4959;SDS011;2495;48.200;11.532;2023-02-04T05:50:11;1.80;;;1.70;;
4959;SDS011;2495;48.200;11.532;2023-02-04T05:55:12;1.40;;;1.30;;
4959;SDS011;2495;48.200;11.532;2023-02-04T06:00:13;1.40;;;1.30;;
4959;SDS011;2495;48.200;11.532;2023-02-04T06:05:14;1.40;;;1.30;;
4959;SDS011;2495;48.200;11.532;2023-02-04T06:10:16;2.00;;;1.87;;
4959;SDS011;2495;48.200;11.532;2023-02-04T06:15:17;1.60;;;1.50;;
4959;SDS011;2495;48.200;11.532;2023-02-04T06:20:18;1.50;;;1.40;;
4959;SDS011;2495;48.200;11.532;2023-02-04T06:25:20;1.47;;;1.37;;
4959;SDS011;2495;48.200;11.532;2023-02-04T06:30:21;1.50;;;1.40;;
4959;SDS011;2495;48.200;11.532;2023-02-04T06:35:22;1.60;;;1.50;;
4959;SDS011;2495;48.200;11.532;2023-02-04T06:40:24;1.60;;;1.50;;
4959;SDS011;2495;48.200;11.532;2023-02-04T06:45:25;1.70;;;1.60;;
4959;SDS011;2495;48.200;11.532;2023-02-04T06:50:27;1.60;;;1.50;;
4959;SDS011;2495;48.200;11.532;2023-02-04T06:55:28;1.50;;;1.40;;
4959;SDS011;2495;48.200;11.532;2023-02-04T07:00:30;1.40;;;1.30;;
4959;SDS011;2495;48.200;11.532;2023-02-04T07:05:32;1.40;;;1.30;;
4959;SDS011;2495;48.200;11.532;2023-02-04T07:10:33;1.40;;;1.30;;
4959;SDS011;2495;48.200;11.532;2023-02-04T07:15:34;1.40;;;1.30;;
4959;SDS011;2495;48.200;11.532;2023-02-04T07:20:35;1.10;;;0.80;;
4959;SDS011;2495;48.200;11.532;2023-02-04T07:25:40;1.40;;;1.30;;
4959;SDS011;2495;48.200;11.532;2023-02-04T07:30:41;1.00;;;0.60;;
4959;SDS011;2495;48.200;11.532;2023-02-04T07:35:43;1.00;;;0.68;;
4959;SDS011;2495;48.200;11.532;2023-02-04T07:40:45;1.50;;;1.40;;
4959;SDS011;2495;48.200;11.532;2023-02-04T07:45:46;1.40;;;1.30;;
4959;SDS011;2495;48.200;11.532;2023-02-04T07:50:48;1.30;;;1.20;;
4959;SDS011;2495;48.200;11.532;2023-02-04T07:55:49;1.40;;;1.30;;
4959;SDS011;2495;48.200;11.532;2023-02-04T08:00:50;1.30;;;1.20;;
4959;SDS011;2495;48.200;11.532;2023-02-04T08:05:52;1.20;;;1.10;;
4959;SDS011;2495;48.200;11.532;2023-02-04T08:10:53;1.40;;;1.30;;
4959;SDS011;2495;48.200;11.532;2023-02-04T08:15:55;1.30;;;1.20;;
4959;SDS011;2495;48.200;11.532;2023-02-04T08:20:56;1.40;;;1.30;;
4959;SDS011;2495;48.200;11.532;2023-02-04T08:25:58;1.30;;;1.20;;
4959;SDS011;2495;48.200;11.532;2023-02-04T08:30:59;1.40;;;1.30;;
4959;SDS011;2495;48.200;11.532;2023-02-04T08:36:04;1.30;;;1.20;;
4959;SDS011;2495;48.200;11.532;2023-02-04T08:41:32;1.27;;;1.17;;
4959;SDS011;2495;48.200;11.532;2023-02-04T08:46:48;1.30;;;1.20;;
4959;SDS011;2495;48.200;11.532;2023-02-04T08:51:50;1.00;;;0.70;;
4959;SDS011;2495;48.200;11.532;2023-02-04T09:03:42;1.20;;;1.10;;
4959;SDS011;2495;48.200;11.532;2023-02-04T10:10:56;1.10;;;1.00;;
4959;SDS011;2495;48.200;11.532;2023-02-04T10:15:58;5.10;;;2.10;;
4959;SDS011;2495;48.200;11.532;2023-02-04T10:26:18;0.97;;;0.80;;
4959;SDS011;2495;48.200;11.532;2023-02-04T10:31:35;1.00;;;0.90;;
4959;SDS011;2495;48.200;11.532;2023-02-04T10:36:36;1.00;;;0.90;;
4959;SDS011;2495;48.200;11.532;2023-02-04T10:41:37;1.00;;;0.80;;
4959;SDS011;2495;48.200;11.532;2023-02-04T10:46:40;1.00;;;0.90;;
4959;SDS011;2495;48.200;11.532;2023-02-04T10:51:41;1.00;;;0.80;;
4959;SDS011;2495;48.200;11.532;2023-02-04T10:56:42;1.00;;;0.80;;
4959;SDS011;2495;48.200;11.532;2023-02-04T11:01:43;0.97;;;0.80;;
4959;SDS011;2495;48.200;11.532;2023-02-04T11:06:45;1.43;;;1.17;;
4959;SDS011;2495;48.200;11.532;2023-02-04T11:11:47;1.00;;;0.80;;
4959;SDS011;2495;48.200;11.532;2023-02-04T11:16:48;1.00;;;0.80;;
4959;SDS011;2495;48.200;11.532;2023-02-04T11:21:49;0.80;;;0.50;;
4959;SDS011;2495;48.200;11.532;2023-02-04T11:26:52;1.00;;;0.80;;
4959;SDS011;2495;48.200;11.532;2023-02-04T11:31:55;0.90;;;0.80;;
4959;SDS011;2495;48.200;11.532;2023-02-04T11:42:16;0.90;;;0.70;;
4959;SDS011;2495;48.200;11.532;2023-02-04T11:47:38;0.90;;;0.70;;
4959;SDS011;2495;48.200;11.532;2023-02-04T12:57:04;0.80;;;0.60;;
4959;SDS011;2495;48.200;11.532;2023-02-04T13:03:30;0.83;;;0.60;;
4959;SDS011;2495;48.200;11.532;2023-02-04T13:08:41;0.90;;;0.60;;
4959;SDS011;2495;48.200;11.532;2023-02-04T14:41:11;0.80;;;0.60;;
4959;SDS011;2495;48.200;11.532;2023-02-04T14:46:18;0.80;;;0.60;;
4959;SDS011;2495;48.200;11.532;2023-02-04T14:51:43;0.80;;;0.60;;
4959;SDS011;2495;48.200;11.532;2023-02-04T14:56:45;0.80;;;0.60;;
4959;SDS011;2495;48.200;11.532;2023-02-04T15:23:03;0.80;;;0.60;;
4959;SDS011;2495;48.200;11.532;2023-02-04T15:28:05;3.47;;;3.17;;
4959;SDS011;2495;48.200;11.532;2023-02-04T15:33:07;0.80;;;0.60;;
4959;SDS011;2495;48.200;11.532;2023-02-04T15:38:09;0.80;;;0.60;;
4959;SDS011;2495;48.200;11.532;2023-02-04T15:43:09;0.80;;;0.60;;
4959;SDS011;2495;48.200;11.532;2023-02-04T15:48:11;0.80;;;0.60;;
4959;SDS011;2495;48.200;11.532;2023-02-04T15:53:12;0.90;;;0.70;;
4959;SDS011;2495;48.200;11.532;2023-02-04T15:58:13;0.83;;;0.60;;
4959;SDS011;2495;48.200;11.532;2023-02-04T16:03:15;0.90;;;0.60;;
4959;SDS011;2495;48.200;11.532;2023-02-04T16:08:16;0.80;;;0.60;;
4959;SDS011;2495;48.200;11.532;2023-02-04T16:13:17;0.80;;;0.60;;
4959;SDS011;2495;48.200;11.532;2023-02-04T16:18:19;0.90;;;0.60;;
4959;SDS011;2495;48.200;11.532;2023-02-04T16:23:20;0.80;;;0.60;;
4959;SDS011;2495;48.200;11.532;2023-02-04T16:28:21;0.90;;;0.60;;
4959;SDS011;2495;48.200;11.532;2023-02-04T16:33:23;0.90;;;0.60;;
4959;SDS011;2495;48.200;11.532;2023-02-04T16:38:24;0.93;;;0.80;;
4959;SDS011;2495;48.200;11.532;2023-02-04T16:43:25;0.90;;;0.60;;
4959;SDS011;2495;48.200;11.532;2023-02-04T16:48:26;1.00;;;0.83;;
4959;SDS011;2495;48.200;11.532;2023-02-04T16:53:28;0.80;;;0.60;;
4959;SDS011;2495;48.200;11.532;2023-02-04T16:58:29;0.87;;;0.60;;
4959;SDS011;2495;48.200;11.532;2023-02-04T17:03:31;0.90;;;0.60;;
4959;SDS011;2495;48.200;11.532;2023-02-04T17:08:32;0.80;;;0.60;;
4959;SDS011;2495;48.200;11.532;2023-02-04T17:13:34;0.90;;;0.60;;
4959;SDS011;2495;48.200;11.532;2023-02-04T17:18:35;0.87;;;0.70;;
4959;SDS011;2495;48.200;11.532;2023-02-04T17:23:36;0.83;;;0.60;;
4959;SDS011;2495;48.200;11.532;2023-02-04T17:28:38;0.80;;;0.50;;
4959;SDS011;2495;48.200;11.532;2023-02-04T17:33:39;0.90;;;0.60;;
4959;SDS011;2495;48.200;11.532;2023-02-04T18:55:33;0.80;;;0.60;;
4959;SDS011;2495;48.200;11.532;2023-02-04T19:00:33;0.80;;;0.60;;
4959;SDS011;2495;48.200;11.532;2023-02-04T19:05:35;1.27;;;1.00;;
4959;SDS011;2495;48.200;11.532;2023-02-04T19:10:36;0.80;;;0.60;;
4959;SDS011;2495;48.200;11.532;2023-02-04T19:15:37;0.80;;;0.60;;
4959;SDS011;2495;48.200;11.532;2023-02-04T19:20:41;0.80;;;0.60;;
4959;SDS011;2495;48.200;11.532;2023-02-04T19:25:45;0.80;;;0.70;;
4959;SDS011;2495;48.200;11.532;2023-02-04T19:30:47;1.00;;;0.83;;
4959;SDS011;2495;48.200;11.532;2023-02-04T19:35:47;0.80;;;0.60;;
4959;SDS011;2495;48.200;11.532;2023-02-04T19:40:48;0.80;;;0.60;;
4959;SDS011;2495;48.200;11.532;2023-02-04T19:45:49;1.07;;;0.97;;
4959;SDS011;2495;48.200;11.532;2023-02-04T19:50:51;0.80;;;0.60;;
4959;SDS011;2495;48.200;11.532;2023-02-04T19:55:52;0.80;;;0.60;;
4959;SDS011;2495;48.200;11.532;2023-02-04T20:00:57;0.80;;;0.60;;
4959;SDS011;2495;48.200;11.532;2023-02-04T20:05:58;0.90;;;0.70;;
4959;SDS011;2495;48.200;11.532;2023-02-04T20:10:58;1.00;;;0.90;;
4959;SDS011;2495;48.200;11.532;2023-02-04T20:16:28;1.60;;;1.50;;
4959;SDS011;2495;48.200;11.532;2023-02-04T20:21:01;0.80;;;0.60;;
4959;SDS011;2495;48.200;11.532;2023-02-04T20:26:02;0.90;;;0.70;;
4959;SDS011;2495;48.200;11.532;2023-02-04T20:31:13;0.80;;;0.60;;
4959;SDS011;2495;48.200;11.532;2023-02-04T20:41:17;1.00;;;0.90;;
4959;SDS011;2495;48.200;11.532;2023-02-04T20:46:23;0.90;;;0.70;;
4959;SDS011;2495;48.200;11.532;2023-02-04T20:51:23;1.10;;;0.93;;
4959;SDS011;2495;48.200;11.532;2023-02-04T20:56:32;0.80;;;0.60;;
4959;SDS011;2495;48.200;11.532;2023-02-04T21:01:36;3.73;;;1.73;;
4959;SDS011;2495;48.200;11.532;2023-02-04T21:06:36;1.93;;;0.97;;
4959;SDS011;2495;48.200;11.532;2023-02-04T21:11:37;1.00;;;0.87;;
4959;SDS011;2495;48.200;11.532;2023-02-04T21:16:39;1.00;;;0.80;;
4959;SDS011;2495;48.200;11.532;2023-02-04T21:21:40;0.90;;;0.80;;
4959;SDS011;2495;48.200;11.532;2023-02-04T21:26:41;0.80;;;0.60;;
4959;SDS011;2495;48.200;11.532;2023-02-04T21:31:42;1.33;;;1.23;;
4959;SDS011;2495;48.200;11.532;2023-02-04T21:36:46;0.80;;;0.50;;
4959;SDS011;2495;48.200;11.532;2023-02-04T21:41:48;1.03;;;0.93;;
4959;SDS011;2495;48.200;11.532;2023-02-04T21:46:49;1.50;;;1.40;;
4959;SDS011;2495;48.200;11.532;2023-02-04T21:51:50;0.90;;;0.80;;
4959;SDS011;2495;48.200;11.532;2023-02-04T21:56:51;1.03;;;0.90;;
4959;SDS011;2495;48.200;11.532;2023-02-04T22:01:53;0.90;;;0.70;;
4959;SDS011;2495;48.200;11.532;2023-02-04T22:06:54;2.10;;;1.10;;
4959;SDS011;2495;48.200;11.532;2023-02-04T22:11:55;1.20;;;1.03;;
4959;SDS011;2495;48.200;11.532;2023-02-04T22:16:57;1.03;;;0.93;;
4959;SDS011;2495;48.200;11.532;2023-02-04T22:21:58;8.37;;;2.80;;
4959;SDS011;2495;48.200;11.532;2023-02-04T22:26:59;1.10;;;1.00;;
4959;SDS011;2495;48.200;11.532;2023-02-04T22:32:00;1.10;;;1.00;;
4959;SDS011;2495;48.200;11.532;2023-02-04T22:37:02;1.97;;;1.63;;
4959;SDS011;2495;48.200;11.532;2023-02-04T22:42:03;1.07;;;0.97;;
4959;SDS011;2495;48.200;11.532;2023-02-04T22:47:04;0.80;;;0.60;;
4959;SDS011;2495;48.200;11.532;2023-02-04T22:52:06;1.30;;;1.00;;
4959;SDS011;2495;48.200;11.532;2023-02-04T22:57:07;0.80;;;0.60;;
4959;SDS011;2495;48.200;11.532;2023-02-04T23:02:08;0.93;;;0.77;;
4959;SDS011;2495;48.200;11.532;2023-02-04T23:07:10;1.53;;;1.17;;
4959;SDS011;2495;48.200;11.532;2023-02-04T23:12:11;0.80;;;0.60;;
4959;SDS011;2495;48.200;11.532;2023-02-04T23:17:15;0.80;;;0.60;;
4959;SDS011;2495;48.200;11.532;2023-02-04T23:22:16;0.80;;;0.60;;
4959;SDS011;2495;48.200;11.532;2023-02-04T23:27:17;3.87;;;1.77;;
4959;SDS011;2495;48.200;11.532;2023-02-04T23:32:19;2.10;;;1.67;;
4959;SDS011;2495;48.200;11.532;2023-02-04T23:37:20;1.00;;;0.80;;
4959;SDS011;2495;48.200;11.532;2023-02-04T23:42:21;15.43;;;1.87;;
4959;SDS011;2495;48.200;11.532;2023-02-04T23:47:22;0.80;;;0.70;;
4959;SDS011;2495;48.200;11.532;2023-02-04T23:52:24;0.80;;;0.70;;
4959;SDS011;2495;48.200;11.532;2023-02-04T23:57:25;1.30;;;1.20;;
